sensor_id;sensor_type;location;lat;lon;timestamp;P1;durP1;ratioP1;P2;durP2;ratioP2
78508;SDS011;67802;50.846;7.958;2023-02-13T07:20:22;2.10;;;0.98;;
78508;SDS011;67802;50.846;7.958;2023-02-13T07:22:49;3.58;;;1.10;;
78508;SDS011;67802;50.846;7.958;2023-02-13T07:25:14;3.17;;;1.20;;
78508;SDS011;67802;50.846;7.958;2023-02-13T07:27:40;2.45;;;1.08;;
78508;SDS011;67802;50.846;7.958;2023-02-13T07:30:05;2.23;;;1.00;;
78508;SDS011;67802;50.846;7.958;2023-02-13T07:32:31;1.85;;;0.90;;
78508;SDS011;67802;50.846;7.958;2023-02-13T07:34:56;1.75;;;0.90;;
78508;SDS011;67802;50.846;7.958;2023-02-13T07:37:21;2.97;;;1.08;;
78508;SDS011;67802;50.846;7.958;2023-02-13T07:39:47;3.15;;;1.33;;
78508;SDS011;67802;50.846;7.958;2023-02-13T07:42:12;3.30;;;1.00;;
78508;SDS011;67802;50.846;7.958;2023-02-13T07:44:37;2.47;;;1.00;;
78508;SDS011;67802;50.846;7.958;2023-02-13T07:47:03;2.85;;;1.20;;
78508;SDS011;67802;50.846;7.958;2023-02-13T07:49:28;2.70;;;1.10;;
78508;SDS011;67802;50.846;7.958;2023-02-13T07:51:55;2.40;;;1.20;;
78508;SDS011;67802;50.846;7.958;2023-02-13T07:54:22;3.65;;;1.30;;
78508;SDS011;67802;50.846;7.958;2023-02-13T07:56:47;7.18;;;3.72;;
78508;SDS011;67802;50.846;7.958;2023-02-13T07:59:12;9.25;;;5.22;;
78508;SDS011;67802;50.846;7.958;2023-02-13T08:01:38;8.00;;;4.43;;
78508;SDS011;67802;50.846;7.958;2023-02-13T08:04:03;6.07;;;2.77;;
78508;SDS011;67802;50.846;7.958;2023-02-13T08:06:28;6.47;;;3.40;;
78508;SDS011;67802;50.846;7.958;2023-02-13T08:08:54;6.30;;;3.08;;
78508;SDS011;67802;50.846;7.958;2023-02-13T08:11:40;6.72;;;3.63;;
78508;SDS011;67802;50.846;7.958;2023-02-13T08:14:17;9.05;;;5.00;;
78508;SDS011;67802;50.846;7.958;2023-02-13T08:16:44;9.30;;;5.13;;
78508;SDS011;67802;50.846;7.958;2023-02-13T08:19:09;8.40;;;4.50;;
78508;SDS011;67802;50.846;7.958;2023-02-13T08:21:34;7.28;;;3.33;;
78508;SDS011;67802;50.846;7.958;2023-02-13T08:24:02;6.45;;;3.22;;
78508;SDS011;67802;50.846;7.958;2023-02-13T08:26:29;5.63;;;2.75;;
78508;SDS011;67802;50.846;7.958;2023-02-13T08:28:55;5.65;;;2.70;;
78508;SDS011;67802;50.846;7.958;2023-02-13T08:31:20;5.25;;;2.55;;
78508;SDS011;67802;50.846;7.958;2023-02-13T08:33:45;5.03;;;2.40;;
78508;SDS011;67802;50.846;7.958;2023-02-13T08:36:11;4.55;;;2.17;;
78508;SDS011;67802;50.846;7.958;2023-02-13T08:38:36;4.43;;;2.17;;
78508;SDS011;67802;50.846;7.958;2023-02-13T08:41:01;5.80;;;2.22;;
78508;SDS011;67802;50.846;7.958;2023-02-13T08:43:27;4.88;;;2.13;;
78508;SDS011;67802;50.846;7.958;2023-02-13T08:45:52;4.75;;;2.10;;
78508;SDS011;67802;50.846;7.958;2023-02-13T08:48:17;4.57;;;2.00;;
78508;SDS011;67802;50.846;7.958;2023-02-13T08:50:43;4.63;;;2.10;;
78508;SDS011;67802;50.846;7.958;2023-02-13T08:53:08;5.33;;;2.43;;
78508;SDS011;67802;50.846;7.958;2023-02-13T08:55:33;4.95;;;2.33;;
78508;SDS011;67802;50.846;7.958;2023-02-13T08:57:59;5.43;;;2.20;;
78508;SDS011;67802;50.846;7.958;2023-02-13T09:00:29;4.13;;;2.13;;
78508;SDS011;67802;50.846;7.958;2023-02-13T09:02:54;4.05;;;2.03;;
78508;SDS011;67802;50.846;7.958;2023-02-13T09:05:25;4.68;;;1.90;;
78508;SDS011;67802;50.846;7.958;2023-02-13T09:07:50;4.10;;;1.95;;
78508;SDS011;67802;50.846;7.958;2023-02-13T09:10:16;4.17;;;1.80;;
78508;SDS011;67802;50.846;7.958;2023-02-13T09:12:41;4.63;;;2.10;;
78508;SDS011;67802;50.846;7.958;2023-02-13T09:15:07;3.72;;;1.83;;
78508;SDS011;67802;50.846;7.958;2023-02-13T09:17:32;3.72;;;1.75;;
78508;SDS011;67802;50.846;7.958;2023-02-13T09:19:58;4.38;;;1.90;;
78508;SDS011;67802;50.846;7.958;2023-02-13T09:22:23;3.92;;;1.75;;
78508;SDS011;67802;50.846;7.958;2023-02-13T09:24:48;4.40;;;2.00;;
78508;SDS011;67802;50.846;7.958;2023-02-13T09:27:14;4.15;;;1.75;;
78508;SDS011;67802;50.846;7.958;2023-02-13T09:29:39;4.10;;;1.70;;
78508;SDS011;67802;50.846;7.958;2023-02-13T09:32:04;4.20;;;1.90;;
78508;SDS011;67802;50.846;7.958;2023-02-13T09:34:30;4.10;;;1.80;;
78508;SDS011;67802;50.846;7.958;2023-02-13T09:36:56;3.70;;;1.70;;
78508;SDS011;67802;50.846;7.958;2023-02-13T09:39:21;4.10;;;1.70;;
78508;SDS011;67802;50.846;7.958;2023-02-13T09:41:47;3.83;;;1.60;;
78508;SDS011;67802;50.846;7.958;2023-02-13T09:44:22;3.83;;;1.70;;
78508;SDS011;67802;50.846;7.958;2023-02-13T09:47:02;3.38;;;1.70;;
78508;SDS011;67802;50.846;7.958;2023-02-13T09:49:34;4.07;;;1.85;;
78508;SDS011;67802;50.846;7.958;2023-02-13T09:52:02;4.05;;;1.80;;
78508;SDS011;67802;50.846;7.958;2023-02-13T09:54:28;3.50;;;1.55;;
78508;SDS011;67802;50.846;7.958;2023-02-13T09:57:16;3.60;;;1.60;;
78508;SDS011;67802;50.846;7.958;2023-02-13T10:02:46;3.40;;;1.60;;
78508;SDS011;67802;50.846;7.958;2023-02-13T10:11:24;4.15;;;1.70;;
78508;SDS011;67802;50.846;7.958;2023-02-13T10:16:41;3.28;;;1.55;;
78508;SDS011;67802;50.846;7.958;2023-02-13T10:22:21;3.67;;;1.65;;
78508;SDS011;67802;50.846;7.958;2023-02-13T10:27:34;4.07;;;1.85;;
78508;SDS011;67802;50.846;7.958;2023-02-13T10:30:07;3.90;;;1.60;;
78508;SDS011;67802;50.846;7.958;2023-02-13T10:35:44;3.30;;;1.50;;
78508;SDS011;67802;50.846;7.958;2023-02-13T10:38:16;3.70;;;1.60;;
78508;SDS011;67802;50.846;7.958;2023-02-13T10:43:38;3.80;;;1.45;;
78508;SDS011;67802;50.846;7.958;2023-02-13T10:52:01;3.08;;;1.48;;
78508;SDS011;67802;50.846;7.958;2023-02-13T10:57:27;3.55;;;1.45;;
78508;SDS011;67802;50.846;7.958;2023-02-13T11:00:20;3.47;;;1.55;;
78508;SDS011;67802;50.846;7.958;2023-02-13T11:02:57;3.85;;;1.42;;
78508;SDS011;67802;50.846;7.958;2023-02-13T11:05:24;3.80;;;1.40;;
78508;SDS011;67802;50.846;7.958;2023-02-13T11:07:56;3.53;;;1.48;;
78508;SDS011;67802;50.846;7.958;2023-02-13T11:10:24;3.25;;;1.40;;
78508;SDS011;67802;50.846;7.958;2023-02-13T11:12:50;3.15;;;1.40;;
78508;SDS011;67802;50.846;7.958;2023-02-13T11:15:26;3.60;;;1.50;;
78508;SDS011;67802;50.846;7.958;2023-02-13T11:17:54;3.40;;;1.40;;
78508;SDS011;67802;50.846;7.958;2023-02-13T11:22:50;3.67;;;1.65;;
78508;SDS011;67802;50.846;7.958;2023-02-13T11:27:44;3.85;;;1.52;;
78508;SDS011;67802;50.846;7.958;2023-02-13T11:33:04;2.72;;;1.20;;
78508;SDS011;67802;50.846;7.958;2023-02-13T11:35:41;6.47;;;2.65;;
78508;SDS011;67802;50.846;7.958;2023-02-13T11:41:28;4.88;;;2.10;;
78508;SDS011;67802;50.846;7.958;2023-02-13T11:43:56;5.15;;;2.55;;
78508;SDS011;67802;50.846;7.958;2023-02-13T11:46:28;7.15;;;3.35;;
78508;SDS011;67802;50.846;7.958;2023-02-13T11:49:17;5.38;;;2.60;;
78508;SDS011;67802;50.846;7.958;2023-02-13T11:51:49;5.05;;;2.60;;
78508;SDS011;67802;50.846;7.958;2023-02-13T11:56:48;57.22;;;13.18;;
78508;SDS011;67802;50.846;7.958;2023-02-13T11:59:15;29.73;;;8.05;;
78508;SDS011;67802;50.846;7.958;2023-02-13T12:01:40;14.90;;;4.82;;
78508;SDS011;67802;50.846;7.958;2023-02-13T12:04:14;11.98;;;4.28;;
78508;SDS011;67802;50.846;7.958;2023-02-13T12:06:56;9.55;;;3.60;;
78508;SDS011;67802;50.846;7.958;2023-02-13T12:09:26;10.25;;;3.50;;
78508;SDS011;67802;50.846;7.958;2023-02-13T12:11:52;7.65;;;3.22;;
78508;SDS011;67802;50.846;7.958;2023-02-13T12:14:22;6.60;;;2.53;;
78508;SDS011;67802;50.846;7.958;2023-02-13T12:16:54;7.05;;;2.47;;
78508;SDS011;67802;50.846;7.958;2023-02-13T12:19:37;5.65;;;2.22;;
78508;SDS011;67802;50.846;7.958;2023-02-13T12:30:32;5.35;;;2.22;;
78508;SDS011;67802;50.846;7.958;2023-02-13T12:35:40;4.25;;;1.73;;
78508;SDS011;67802;50.846;7.958;2023-02-13T12:38:24;7.30;;;2.13;;
78508;SDS011;67802;50.846;7.958;2023-02-13T12:46:19;4.43;;;1.90;;
78508;SDS011;67802;50.846;7.958;2023-02-13T12:49:00;6.63;;;2.08;;
78508;SDS011;67802;50.846;7.958;2023-02-13T13:08:33;5.80;;;1.77;;
78508;SDS011;67802;50.846;7.958;2023-02-13T13:11:19;4.60;;;2.10;;
78508;SDS011;67802;50.846;7.958;2023-02-13T13:14:02;5.30;;;1.90;;
78508;SDS011;67802;50.846;7.958;2023-02-13T13:16:41;4.15;;;1.88;;
78508;SDS011;67802;50.846;7.958;2023-02-13T13:19:17;5.10;;;1.90;;
78508;SDS011;67802;50.846;7.958;2023-02-13T13:22:12;3.40;;;1.50;;
78508;SDS011;67802;50.846;7.958;2023-02-13T13:27:17;4.28;;;1.70;;
78508;SDS011;67802;50.846;7.958;2023-02-13T13:29:53;3.15;;;1.42;;
78508;SDS011;67802;50.846;7.958;2023-02-13T13:32:22;5.63;;;1.70;;
78508;SDS011;67802;50.846;7.958;2023-02-13T13:34:50;6.85;;;1.60;;
78508;SDS011;67802;50.846;7.958;2023-02-13T13:37:33;3.15;;;1.30;;
78508;SDS011;67802;50.846;7.958;2023-02-13T13:48:45;3.55;;;1.52;;
78508;SDS011;67802;50.846;7.958;2023-02-13T13:51:16;3.70;;;1.30;;
78508;SDS011;67802;50.846;7.958;2023-02-13T13:57:00;4.03;;;1.40;;
78508;SDS011;67802;50.846;7.958;2023-02-13T14:05:41;3.42;;;1.35;;
78508;SDS011;67802;50.846;7.958;2023-02-13T14:07:41;4.03;;;1.35;;
78508;SDS011;67802;50.846;7.958;2023-02-13T14:12:45;3.28;;;1.25;;
78508;SDS011;67802;50.846;7.958;2023-02-13T14:18:03;3.08;;;1.20;;
78508;SDS011;67802;50.846;7.958;2023-02-13T14:20:51;2.80;;;1.20;;
78508;SDS011;67802;50.846;7.958;2023-02-13T14:23:36;2.88;;;1.10;;
78508;SDS011;67802;50.846;7.958;2023-02-13T14:31:22;3.60;;;1.30;;
78508;SDS011;67802;50.846;7.958;2023-02-13T14:36:47;2.90;;;1.30;;
78508;SDS011;67802;50.846;7.958;2023-02-13T14:39:28;3.80;;;1.10;;
78508;SDS011;67802;50.846;7.958;2023-02-13T14:42:01;2.72;;;1.02;;
78508;SDS011;67802;50.846;7.958;2023-02-13T14:47:17;3.05;;;1.30;;
78508;SDS011;67802;50.846;7.958;2023-02-13T14:49:47;2.35;;;1.15;;
78508;SDS011;67802;50.846;7.958;2023-02-13T14:52:18;3.42;;;1.20;;
78508;SDS011;67802;50.846;7.958;2023-02-13T14:54:51;2.80;;;1.17;;
78508;SDS011;67802;50.846;7.958;2023-02-13T14:57:21;2.60;;;1.15;;
78508;SDS011;67802;50.846;7.958;2023-02-13T15:02:25;2.85;;;1.10;;
78508;SDS011;67802;50.846;7.958;2023-02-13T15:10:58;3.45;;;1.20;;
78508;SDS011;67802;50.846;7.958;2023-02-13T15:13:26;2.90;;;1.10;;
78508;SDS011;67802;50.846;7.958;2023-02-13T15:18:49;2.13;;;1.00;;
78508;SDS011;67802;50.846;7.958;2023-02-13T15:21:20;2.45;;;1.10;;
78508;SDS011;67802;50.846;7.958;2023-02-13T15:23:51;3.08;;;1.20;;
78508;SDS011;67802;50.846;7.958;2023-02-13T15:26:22;2.70;;;1.10;;
78508;SDS011;67802;50.846;7.958;2023-02-13T15:28:57;2.17;;;1.08;;
78508;SDS011;67802;50.846;7.958;2023-02-13T15:31:23;4.13;;;1.30;;
78508;SDS011;67802;50.846;7.958;2023-02-13T15:33:49;2.35;;;1.00;;
78508;SDS011;67802;50.846;7.958;2023-02-13T15:36:22;2.80;;;1.20;;
78508;SDS011;67802;50.846;7.958;2023-02-13T15:39:00;2.60;;;1.00;;
78508;SDS011;67802;50.846;7.958;2023-02-13T15:41:32;3.10;;;1.10;;
78508;SDS011;67802;50.846;7.958;2023-02-13T15:44:01;2.03;;;1.00;;
78508;SDS011;67802;50.846;7.958;2023-02-13T15:46:30;3.15;;;1.15;;
78508;SDS011;67802;50.846;7.958;2023-02-13T15:49:03;2.78;;;1.10;;
78508;SDS011;67802;50.846;7.958;2023-02-13T15:51:34;2.50;;;1.17;;
78508;SDS011;67802;50.846;7.958;2023-02-13T15:54:01;2.45;;;1.10;;
78508;SDS011;67802;50.846;7.958;2023-02-13T15:56:50;2.80;;;1.02;;
78508;SDS011;67802;50.846;7.958;2023-02-13T15:59:18;2.17;;;1.08;;
78508;SDS011;67802;50.846;7.958;2023-02-13T16:01:45;3.20;;;1.23;;
78508;SDS011;67802;50.846;7.958;2023-02-13T16:04:11;2.53;;;1.00;;
78508;SDS011;67802;50.846;7.958;2023-02-13T16:06:40;2.50;;;1.05;;
78508;SDS011;67802;50.846;7.958;2023-02-13T16:09:19;2.65;;;1.05;;
78508;SDS011;67802;50.846;7.958;2023-02-13T16:11:47;2.58;;;1.10;;
78508;SDS011;67802;50.846;7.958;2023-02-13T16:14:16;2.33;;;1.00;;
78508;SDS011;67802;50.846;7.958;2023-02-13T16:16:47;2.10;;;1.00;;
78508;SDS011;67802;50.846;7.958;2023-02-13T16:22:19;2.35;;;1.10;;
78508;SDS011;67802;50.846;7.958;2023-02-13T16:24:52;3.35;;;1.20;;
78508;SDS011;67802;50.846;7.958;2023-02-13T16:27:20;2.05;;;1.08;;
78508;SDS011;67802;50.846;7.958;2023-02-13T16:29:53;2.83;;;1.10;;
78508;SDS011;67802;50.846;7.958;2023-02-13T16:32:24;3.03;;;1.23;;
78508;SDS011;67802;50.846;7.958;2023-02-13T16:34:53;2.50;;;1.10;;
78508;SDS011;67802;50.846;7.958;2023-02-13T16:37:25;2.70;;;1.20;;
78508;SDS011;67802;50.846;7.958;2023-02-13T16:39:55;3.60;;;1.33;;
78508;SDS011;67802;50.846;7.958;2023-02-13T16:42:20;3.07;;;1.20;;
78508;SDS011;67802;50.846;7.958;2023-02-13T16:44:45;2.95;;;1.20;;
78508;SDS011;67802;50.846;7.958;2023-02-13T16:47:20;2.97;;;1.20;;
78508;SDS011;67802;50.846;7.958;2023-02-13T16:49:50;2.55;;;1.10;;
78508;SDS011;67802;50.846;7.958;2023-02-13T16:52:21;2.55;;;1.13;;
78508;SDS011;67802;50.846;7.958;2023-02-13T16:54:56;2.53;;;1.10;;
78508;SDS011;67802;50.846;7.958;2023-02-13T16:57:25;2.47;;;1.10;;
78508;SDS011;67802;50.846;7.958;2023-02-13T17:02:26;2.53;;;1.20;;
78508;SDS011;67802;50.846;7.958;2023-02-13T17:05:00;2.08;;;1.10;;
78508;SDS011;67802;50.846;7.958;2023-02-13T17:07:36;3.13;;;1.20;;
78508;SDS011;67802;50.846;7.958;2023-02-13T17:10:18;2.08;;;1.00;;
78508;SDS011;67802;50.846;7.958;2023-02-13T17:12:46;3.10;;;1.20;;
78508;SDS011;67802;50.846;7.958;2023-02-13T17:15:13;3.10;;;1.30;;
78508;SDS011;67802;50.846;7.958;2023-02-13T17:17:40;3.03;;;1.20;;
78508;SDS011;67802;50.846;7.958;2023-02-13T17:20:07;3.35;;;1.48;;
78508;SDS011;67802;50.846;7.958;2023-02-13T17:22:41;2.83;;;1.17;;
78508;SDS011;67802;50.846;7.958;2023-02-13T17:25:14;2.90;;;1.20;;
78508;SDS011;67802;50.846;7.958;2023-02-13T17:27:39;3.05;;;1.23;;
78508;SDS011;67802;50.846;7.958;2023-02-13T17:30:05;2.88;;;1.15;;
78508;SDS011;67802;50.846;7.958;2023-02-13T17:32:31;2.80;;;1.30;;
78508;SDS011;67802;50.846;7.958;2023-02-13T17:34:56;3.33;;;1.40;;
78508;SDS011;67802;50.846;7.958;2023-02-13T17:37:22;4.13;;;1.30;;
78508;SDS011;67802;50.846;7.958;2023-02-13T17:39:49;2.72;;;1.17;;
78508;SDS011;67802;50.846;7.958;2023-02-13T17:42:16;2.47;;;1.20;;
78508;SDS011;67802;50.846;7.958;2023-02-13T17:44:44;2.90;;;1.20;;
78508;SDS011;67802;50.846;7.958;2023-02-13T17:47:10;3.03;;;1.35;;
78508;SDS011;67802;50.846;7.958;2023-02-13T17:49:35;2.83;;;1.27;;
78508;SDS011;67802;50.846;7.958;2023-02-13T17:52:00;2.87;;;1.20;;
78508;SDS011;67802;50.846;7.958;2023-02-13T17:54:26;3.55;;;1.30;;
78508;SDS011;67802;50.846;7.958;2023-02-13T17:56:51;3.17;;;1.27;;
78508;SDS011;67802;50.846;7.958;2023-02-13T17:59:16;3.58;;;1.40;;
78508;SDS011;67802;50.846;7.958;2023-02-13T18:01:42;4.30;;;1.40;;
78508;SDS011;67802;50.846;7.958;2023-02-13T18:04:07;2.47;;;1.13;;
78508;SDS011;67802;50.846;7.958;2023-02-13T18:06:32;3.07;;;1.30;;
78508;SDS011;67802;50.846;7.958;2023-02-13T18:08:58;3.40;;;1.30;;
78508;SDS011;67802;50.846;7.958;2023-02-13T18:11:23;2.50;;;1.27;;
78508;SDS011;67802;50.846;7.958;2023-02-13T18:13:48;3.50;;;1.13;;
78508;SDS011;67802;50.846;7.958;2023-02-13T18:16:14;2.25;;;1.05;;
78508;SDS011;67802;50.846;7.958;2023-02-13T18:18:40;4.15;;;1.38;;
78508;SDS011;67802;50.846;7.958;2023-02-13T18:21:05;2.53;;;1.13;;
78508;SDS011;67802;50.846;7.958;2023-02-13T18:23:30;2.85;;;1.30;;
78508;SDS011;67802;50.846;7.958;2023-02-13T18:26:06;3.33;;;1.30;;
78508;SDS011;67802;50.846;7.958;2023-02-13T18:28:33;2.50;;;1.00;;
78508;SDS011;67802;50.846;7.958;2023-02-13T18:30:58;3.80;;;1.30;;
78508;SDS011;67802;50.846;7.958;2023-02-13T18:33:23;3.42;;;1.30;;
78508;SDS011;67802;50.846;7.958;2023-02-13T18:35:49;2.80;;;1.20;;
78508;SDS011;67802;50.846;7.958;2023-02-13T18:38:14;3.33;;;1.20;;
78508;SDS011;67802;50.846;7.958;2023-02-13T18:40:39;3.72;;;1.50;;
78508;SDS011;67802;50.846;7.958;2023-02-13T18:43:05;3.17;;;1.30;;
78508;SDS011;67802;50.846;7.958;2023-02-13T18:45:30;3.30;;;1.33;;
78508;SDS011;67802;50.846;7.958;2023-02-13T18:47:55;3.22;;;1.20;;
78508;SDS011;67802;50.846;7.958;2023-02-13T18:50:21;2.97;;;1.25;;
78508;SDS011;67802;50.846;7.958;2023-02-13T18:52:47;2.28;;;1.10;;
78508;SDS011;67802;50.846;7.958;2023-02-13T18:55:12;2.53;;;1.20;;
78508;SDS011;67802;50.846;7.958;2023-02-13T18:57:38;3.40;;;1.30;;
78508;SDS011;67802;50.846;7.958;2023-02-13T19:00:07;3.15;;;1.20;;
78508;SDS011;67802;50.846;7.958;2023-02-13T19:02:33;2.60;;;1.20;;
78508;SDS011;67802;50.846;7.958;2023-02-13T19:04:59;2.70;;;1.05;;
78508;SDS011;67802;50.846;7.958;2023-02-13T19:07:25;2.67;;;1.20;;
78508;SDS011;67802;50.846;7.958;2023-02-13T19:09:50;2.80;;;1.30;;
78508;SDS011;67802;50.846;7.958;2023-02-13T19:12:15;2.90;;;1.20;;
78508;SDS011;67802;50.846;7.958;2023-02-13T19:14:41;4.10;;;1.60;;
78508;SDS011;67802;50.846;7.958;2023-02-13T19:17:06;3.75;;;1.38;;
78508;SDS011;67802;50.846;7.958;2023-02-13T19:19:33;3.13;;;1.30;;
78508;SDS011;67802;50.846;7.958;2023-02-13T19:21:58;3.38;;;1.30;;
78508;SDS011;67802;50.846;7.958;2023-02-13T19:24:23;2.87;;;1.40;;
78508;SDS011;67802;50.846;7.958;2023-02-13T19:26:49;3.13;;;1.30;;
78508;SDS011;67802;50.846;7.958;2023-02-13T19:29:14;3.92;;;1.52;;
78508;SDS011;67802;50.846;7.958;2023-02-13T19:31:39;3.33;;;1.30;;
78508;SDS011;67802;50.846;7.958;2023-02-13T19:34:05;3.50;;;1.50;;
78508;SDS011;67802;50.846;7.958;2023-02-13T19:36:30;2.92;;;1.30;;
78508;SDS011;67802;50.846;7.958;2023-02-13T19:38:59;2.80;;;1.23;;
78508;SDS011;67802;50.846;7.958;2023-02-13T19:41:30;3.00;;;1.27;;
78508;SDS011;67802;50.846;7.958;2023-02-13T19:43:56;3.47;;;1.42;;
78508;SDS011;67802;50.846;7.958;2023-02-13T19:46:24;3.30;;;1.35;;
78508;SDS011;67802;50.846;7.958;2023-02-13T19:48:51;3.60;;;1.65;;
78508;SDS011;67802;50.846;7.958;2023-02-13T19:51:18;3.22;;;1.30;;
78508;SDS011;67802;50.846;7.958;2023-02-13T19:53:45;3.45;;;1.40;;
78508;SDS011;67802;50.846;7.958;2023-02-13T19:56:10;2.95;;;1.20;;
78508;SDS011;67802;50.846;7.958;2023-02-13T19:58:37;3.55;;;1.50;;
78508;SDS011;67802;50.846;7.958;2023-02-13T20:01:16;3.65;;;1.30;;
78508;SDS011;67802;50.846;7.958;2023-02-13T20:03:43;2.53;;;1.20;;
78508;SDS011;67802;50.846;7.958;2023-02-13T20:06:13;3.05;;;1.50;;
78508;SDS011;67802;50.846;7.958;2023-02-13T20:10:14;1.65;;;0.82;;
78508;SDS011;67802;50.846;7.958;2023-02-13T20:12:39;2.38;;;1.00;;
78508;SDS011;67802;50.846;7.958;2023-02-13T20:15:04;4.53;;;1.27;;
78508;SDS011;67802;50.846;7.958;2023-02-13T20:17:30;2.30;;;1.00;;
78508;SDS011;67802;50.846;7.958;2023-02-13T20:19:55;2.65;;;0.95;;
78508;SDS011;67802;50.846;7.958;2023-02-13T20:22:21;2.55;;;1.00;;
78508;SDS011;67802;50.846;7.958;2023-02-13T20:24:47;3.50;;;1.13;;
78508;SDS011;67802;50.846;7.958;2023-02-13T20:27:12;2.78;;;1.02;;
78508;SDS011;67802;50.846;7.958;2023-02-13T20:29:38;4.28;;;1.45;;
78508;SDS011;67802;50.846;7.958;2023-02-13T20:32:04;3.40;;;1.40;;
78508;SDS011;67802;50.846;7.958;2023-02-13T20:34:29;3.33;;;1.42;;
78508;SDS011;67802;50.846;7.958;2023-02-13T20:36:54;3.40;;;1.40;;
78508;SDS011;67802;50.846;7.958;2023-02-13T20:39:20;4.32;;;1.40;;
78508;SDS011;67802;50.846;7.958;2023-02-13T20:41:45;4.38;;;1.60;;
78508;SDS011;67802;50.846;7.958;2023-02-13T20:44:14;3.38;;;1.35;;
78508;SDS011;67802;50.846;7.958;2023-02-13T20:46:41;3.83;;;1.63;;
78508;SDS011;67802;50.846;7.958;2023-02-13T20:49:07;3.70;;;1.40;;
78508;SDS011;67802;50.846;7.958;2023-02-13T20:51:34;5.20;;;1.65;;
78508;SDS011;67802;50.846;7.958;2023-02-13T20:54:00;3.78;;;1.50;;
78508;SDS011;67802;50.846;7.958;2023-02-13T20:56:26;5.60;;;1.40;;
78508;SDS011;67802;50.846;7.958;2023-02-13T20:58:53;3.20;;;1.50;;
78508;SDS011;67802;50.846;7.958;2023-02-13T21:03:47;3.60;;;1.45;;
78508;SDS011;67802;50.846;7.958;2023-02-13T21:06:17;4.35;;;1.50;;
78508;SDS011;67802;50.846;7.958;2023-02-13T21:08:45;3.65;;;1.40;;
78508;SDS011;67802;50.846;7.958;2023-02-13T21:11:10;3.25;;;1.38;;
78508;SDS011;67802;50.846;7.958;2023-02-13T21:13:36;3.40;;;1.40;;
78508;SDS011;67802;50.846;7.958;2023-02-13T21:16:07;3.00;;;1.30;;
78508;SDS011;67802;50.846;7.958;2023-02-13T21:18:40;3.67;;;1.52;;
78508;SDS011;67802;50.846;7.958;2023-02-13T21:21:07;3.65;;;1.60;;
78508;SDS011;67802;50.846;7.958;2023-02-13T21:23:34;4.00;;;1.60;;
78508;SDS011;67802;50.846;7.958;2023-02-13T21:26:04;2.83;;;1.35;;
78508;SDS011;67802;50.846;7.958;2023-02-13T21:28:30;3.60;;;1.50;;
78508;SDS011;67802;50.846;7.958;2023-02-13T21:30:56;3.60;;;1.60;;
78508;SDS011;67802;50.846;7.958;2023-02-13T21:33:21;4.03;;;1.50;;
78508;SDS011;67802;50.846;7.958;2023-02-13T21:35:47;3.58;;;1.70;;
78508;SDS011;67802;50.846;7.958;2023-02-13T21:38:12;3.00;;;1.35;;
78508;SDS011;67802;50.846;7.958;2023-02-13T21:40:37;2.80;;;1.37;;
78508;SDS011;67802;50.846;7.958;2023-02-13T21:43:04;3.65;;;1.50;;
78508;SDS011;67802;50.846;7.958;2023-02-13T21:45:30;4.10;;;1.50;;
78508;SDS011;67802;50.846;7.958;2023-02-13T21:47:55;3.60;;;1.48;;
78508;SDS011;67802;50.846;7.958;2023-02-13T21:50:21;3.40;;;1.50;;
78508;SDS011;67802;50.846;7.958;2023-02-13T21:52:47;3.17;;;1.35;;
78508;SDS011;67802;50.846;7.958;2023-02-13T21:55:12;4.20;;;1.50;;
78508;SDS011;67802;50.846;7.958;2023-02-13T21:57:37;3.75;;;1.63;;
78508;SDS011;67802;50.846;7.958;2023-02-13T22:00:04;3.45;;;1.70;;
78508;SDS011;67802;50.846;7.958;2023-02-13T22:02:32;3.85;;;1.50;;
78508;SDS011;67802;50.846;7.958;2023-02-13T22:04:58;2.40;;;1.10;;
78508;SDS011;67802;50.846;7.958;2023-02-13T22:07:23;3.60;;;1.60;;
78508;SDS011;67802;50.846;7.958;2023-02-13T22:09:48;3.58;;;1.40;;
78508;SDS011;67802;50.846;7.958;2023-02-13T22:12:14;3.60;;;1.60;;
78508;SDS011;67802;50.846;7.958;2023-02-13T22:14:39;3.97;;;1.57;;
78508;SDS011;67802;50.846;7.958;2023-02-13T22:17:04;4.13;;;1.48;;
78508;SDS011;67802;50.846;7.958;2023-02-13T22:19:30;3.25;;;1.60;;
78508;SDS011;67802;50.846;7.958;2023-02-13T22:21:55;5.22;;;1.73;;
78508;SDS011;67802;50.846;7.958;2023-02-13T22:24:20;3.63;;;1.73;;
78508;SDS011;67802;50.846;7.958;2023-02-13T22:26:46;3.60;;;1.50;;
78508;SDS011;67802;50.846;7.958;2023-02-13T22:29:12;4.60;;;1.70;;
78508;SDS011;67802;50.846;7.958;2023-02-13T22:31:39;3.47;;;1.50;;
78508;SDS011;67802;50.846;7.958;2023-02-13T22:34:05;4.47;;;1.80;;
78508;SDS011;67802;50.846;7.958;2023-02-13T22:36:34;4.55;;;1.98;;
78508;SDS011;67802;50.846;7.958;2023-02-13T22:39:04;3.22;;;1.63;;
78508;SDS011;67802;50.846;7.958;2023-02-13T22:41:30;4.10;;;1.80;;
78508;SDS011;67802;50.846;7.958;2023-02-13T22:43:55;4.32;;;1.77;;
78508;SDS011;67802;50.846;7.958;2023-02-13T22:46:22;3.88;;;1.77;;
78508;SDS011;67802;50.846;7.958;2023-02-13T22:48:52;3.95;;;1.75;;
78508;SDS011;67802;50.846;7.958;2023-02-13T22:51:23;3.33;;;1.67;;
78508;SDS011;67802;50.846;7.958;2023-02-13T22:53:53;4.20;;;1.80;;
78508;SDS011;67802;50.846;7.958;2023-02-13T22:56:19;4.30;;;2.00;;
78508;SDS011;67802;50.846;7.958;2023-02-13T22:58:46;4.32;;;2.05;;
78508;SDS011;67802;50.846;7.958;2023-02-13T23:01:12;4.05;;;1.70;;
78508;SDS011;67802;50.846;7.958;2023-02-13T23:03:39;4.18;;;1.85;;
78508;SDS011;67802;50.846;7.958;2023-02-13T23:06:05;4.38;;;2.00;;
78508;SDS011;67802;50.846;7.958;2023-02-13T23:08:32;3.72;;;1.77;;
78508;SDS011;67802;50.846;7.958;2023-02-13T23:10:58;4.13;;;1.75;;
78508;SDS011;67802;50.846;7.958;2023-02-13T23:13:47;3.95;;;1.63;;
78508;SDS011;67802;50.846;7.958;2023-02-13T23:16:13;3.92;;;1.80;;
78508;SDS011;67802;50.846;7.958;2023-02-13T23:18:39;3.80;;;1.80;;
78508;SDS011;67802;50.846;7.958;2023-02-13T23:21:04;3.90;;;1.60;;
78508;SDS011;67802;50.846;7.958;2023-02-13T23:23:31;3.55;;;1.63;;
78508;SDS011;67802;50.846;7.958;2023-02-13T23:25:56;3.88;;;1.70;;
78508;SDS011;67802;50.846;7.958;2023-02-13T23:28:21;3.65;;;1.77;;
78508;SDS011;67802;50.846;7.958;2023-02-13T23:41:07;5.50;;;1.77;;
78508;SDS011;67802;50.846;7.958;2023-02-13T23:43:33;4.75;;;1.95;;
78508;SDS011;67802;50.846;7.958;2023-02-13T23:46:01;3.83;;;1.50;;
78508;SDS011;67802;50.846;7.958;2023-02-13T23:48:30;3.70;;;1.60;;
78508;SDS011;67802;50.846;7.958;2023-02-13T23:50:56;4.18;;;1.70;;
78508;SDS011;67802;50.846;7.958;2023-02-13T23:53:21;3.88;;;1.70;;
78508;SDS011;67802;50.846;7.958;2023-02-13T23:55:47;4.00;;;1.70;;
78508;SDS011;67802;50.846;7.958;2023-02-13T23:58:13;3.67;;;1.70;;
